Time;durP1;ratioP1;P1;durP2;ratioP2;P2;SDS_P1;SDS_P2;PMS_P1;PMS_P2;Temp;Humidity;BMP_temperature;BMP_pressure;BME280_temperature;BME280_humidity;BME280_pressure;Samples;Min_cycle;Max_cycle;Signal;HPM_P1;HPM_P2
2021/05/22 00:00:15;;;;;;;4.63;1.95;;;;;;;7.02;55.41;94263.63;5067616;28;20783;-85
2021/05/22 00:02:40;;;;;;;4.63;1.60;;;;;;;7.05;53.88;94269.53;5055571;28;20076;-85
2021/05/22 00:05:06;;;;;;;2.92;1.50;;;;;;;6.96;53.14;94255.59;5074750;28;20237;-85
2021/05/22 00:07:32;;;;;;;4.80;1.70;;;;;;;6.60;53.77;94259.94;5053488;28;20112;-85
2021/05/22 00:09:57;;;;;;;4.03;1.40;;;;;;;6.94;54.47;94265.56;5051632;28;20076;-85
2021/05/22 00:12:24;;;;;;;4.30;1.35;;;;;;;6.55;54.48;94265.78;5068687;28;20107;-85
2021/05/22 00:14:51;;;;;;;6.53;1.95;;;;;;;6.17;55.02;94264.06;5054456;28;20104;-85
2021/05/22 00:17:16;;;;;;;5.50;1.42;;;;;;;6.66;54.67;94264.47;5074747;28;20558;-85
2021/05/22 00:19:41;;;;;;;4.63;1.60;;;;;;;6.18;55.74;94268.34;5073434;28;20120;-85
2021/05/22 00:22:07;;;;;;;5.47;2.47;;;;;;;6.27;54.53;94262.97;5036190;28;20077;-85
2021/05/22 00:24:32;;;;;;;3.13;1.60;;;;;;;6.42;55.34;94258.47;5069403;28;20381;-85
2021/05/22 00:26:58;;;;;;;3.95;1.77;;;;;;;6.35;54.52;94271.63;5052350;28;20104;-85
2021/05/22 00:29:23;;;;;;;3.83;1.65;;;;;;;6.32;54.64;94269.34;5068013;28;20085;-85
2021/05/22 00:31:49;;;;;;;4.53;2.00;;;;;;;5.62;55.76;94274.91;5074004;28;20108;-85
2021/05/22 00:34:14;;;;;;;3.33;1.48;;;;;;;5.79;55.82;94269.44;5037592;28;20085;-85
2021/05/22 00:36:39;;;;;;;4.13;1.58;;;;;;;5.60;57.46;94279.53;5071173;28;20115;-84
2021/05/22 00:39:05;;;;;;;4.97;1.73;;;;;;;5.90;55.20;94276.91;5053218;28;20438;-84
2021/05/22 00:41:31;;;;;;;6.07;2.35;;;;;;;5.87;55.72;94285.19;5074522;28;20491;-84
2021/05/22 00:43:56;;;;;;;7.90;1.58;;;;;;;5.62;55.54;94285.47;5065367;28;20440;-85
2021/05/22 00:46:22;;;;;;;7.45;2.65;;;;;;;5.67;56.49;94275.16;5066258;28;20135;-84
2021/05/22 00:48:48;;;;;;;10.57;3.95;;;;;;;5.54;56.60;94281.06;5064816;28;20117;-84
2021/05/22 00:51:13;;;;;;;5.28;1.80;;;;;;;5.14;57.36;94281.22;5033380;28;20752;-85
2021/05/22 00:53:39;;;;;;;4.43;1.55;;;;;;;5.32;56.70;94283.56;5071091;28;20085;-85
2021/05/22 00:56:04;;;;;;;11.68;4.90;;;;;;;5.53;56.53;94278.59;5072304;28;20093;-85
2021/05/22 00:58:30;;;;;;;3.42;1.30;;;;;;;5.03;58.04;94274.50;5070467;28;20087;-84
2021/05/22 01:00:56;;;;;;;5.82;1.60;;;;;;;5.06;58.08;94261.00;5069754;28;20105;-84
2021/05/22 01:03:33;;;;;;;7.72;1.70;;;;;;;4.90;58.31;94272.47;5064790;28;20127;-85
2021/05/22 01:06:11;;;;;;;10.02;5.35;;;;;;;5.29;57.80;94275.19;5066907;28;20099;-84
2021/05/22 01:08:38;;;;;;;8.27;4.57;;;;;;;5.16;58.31;94267.84;5052159;28;20097;-84
2021/05/22 01:11:08;;;;;;;4.38;1.73;;;;;;;5.45;56.66;94268.94;5068013;28;20527;-85
2021/05/22 01:13:37;;;;;;;5.60;2.15;;;;;;;5.65;55.98;94271.91;5053513;28;20129;-85
2021/05/22 01:16:03;;;;;;;6.18;1.80;;;;;;;5.68;55.07;94283.91;5066927;28;20097;-84
2021/05/22 01:18:28;;;;;;;4.95;2.15;;;;;;;5.39;56.18;94278.41;5050231;28;20454;-84
2021/05/22 01:20:58;;;;;;;7.82;1.92;;;;;;;5.31;56.69;94283.75;5038352;28;20075;-84
2021/05/22 01:23:31;;;;;;;5.45;1.83;;;;;;;4.84;57.43;94283.72;5054513;28;20103;-84
2021/05/22 01:25:56;;;;;;;11.13;5.15;;;;;;;5.32;57.85;94275.66;5054012;28;20076;-85
2021/05/22 01:28:22;;;;;;;11.13;4.25;;;;;;;5.19;57.52;94278.88;5035616;28;20131;-85
2021/05/22 01:30:48;;;;;;;6.22;2.17;;;;;;;5.27;56.32;94280.63;5038216;28;20108;-85
2021/05/22 01:33:13;;;;;;;4.25;1.70;;;;;;;5.15;57.05;94274.97;5057712;28;20065;-85
2021/05/22 01:35:40;;;;;;;8.95;4.45;;;;;;;5.78;56.01;94278.38;5033070;28;20101;-85
2021/05/22 01:38:05;;;;;;;13.32;3.90;;;;;;;5.91;56.05;94281.19;5074846;28;20421;-85
2021/05/22 01:40:31;;;;;;;4.38;1.67;;;;;;;5.62;55.81;94280.19;5074499;28;20115;-85
2021/05/22 01:42:56;;;;;;;6.28;1.73;;;;;;;5.02;57.70;94285.25;5041557;28;20555;-85
2021/05/22 01:45:27;;;;;;;9.50;3.25;;;;;;;5.76;57.68;94285.66;5051705;28;20475;-85
2021/05/22 01:47:53;;;;;;;6.28;2.30;;;;;;;6.32;55.30;94294.97;5050777;28;20689;-85
2021/05/22 01:50:18;;;;;;;11.45;4.10;;;;;;;6.22;54.97;94296.06;5058314;28;20080;-85
2021/05/22 01:52:46;;;;;;;5.72;2.20;;;;;;;5.50;56.92;94289.53;5065871;28;20208;-85
2021/05/22 01:55:11;;;;;;;10.82;4.47;;;;;;;5.37;56.39;94293.56;5067877;28;20111;-85
2021/05/22 01:57:38;;;;;;;5.97;1.63;;;;;;;5.01;58.09;94284.44;5051174;28;20445;-85
2021/05/22 02:00:04;;;;;;;9.00;3.38;;;;;;;5.77;57.21;94284.63;5069537;28;20101;-85
2021/05/22 02:02:29;;;;;;;6.93;1.80;;;;;;;6.11;56.04;94286.78;5050076;28;20077;-85
2021/05/22 02:04:55;;;;;;;7.07;2.00;;;;;;;5.65;55.58;94290.38;5063943;28;20586;-84
2021/05/22 02:07:21;;;;;;;3.45;1.40;;;;;;;6.10;54.91;94284.31;5035078;28;20618;-85
2021/05/22 02:09:47;;;;;;;6.47;1.92;;;;;;;5.65;55.51;94286.91;5068856;28;20084;-85
2021/05/22 02:12:13;;;;;;;9.10;2.10;;;;;;;5.43;56.82;94282.31;5035335;28;20101;-84
2021/05/22 02:14:38;;;;;;;6.10;1.58;;;;;;;5.98;55.27;94292.69;5053197;28;20500;-85
2021/05/22 02:17:07;;;;;;;8.43;1.83;;;;;;;5.46;56.72;94283.78;5074709;28;20495;-84
2021/05/22 02:19:33;;;;;;;8.65;1.73;;;;;;;5.36;56.36;94276.09;5056754;28;20223;-84
2021/05/22 02:22:00;;;;;;;6.05;2.05;;;;;;;4.99;58.32;94264.50;5036789;28;20209;-85
2021/05/22 02:24:26;;;;;;;3.85;1.50;;;;;;;5.51;55.75;94276.13;5036361;28;20105;-86
2021/05/22 02:26:52;;;;;;;7.25;2.30;;;;;;;4.37;59.18;94262.56;5071393;28;20170;-85
2021/05/22 02:29:21;;;;;;;7.65;2.33;;;;;;;3.16;63.47;94266.78;5053977;28;20124;-85
2021/05/22 02:31:48;;;;;;;6.00;2.20;;;;;;;5.00;58.06;94272.22;5075076;28;20123;-85
2021/05/22 02:34:13;;;;;;;5.38;2.95;;;;;;;4.60;59.45;94258.31;5071467;28;20198;-85
2021/05/22 02:36:39;;;;;;;11.07;2.10;;;;;;;4.84;58.23;94263.44;5074415;28;20241;-84
2021/05/22 02:39:05;;;;;;;8.73;2.28;;;;;;;4.97;58.13;94264.69;5055041;28;20101;-84
2021/05/22 02:41:30;;;;;;;10.55;2.10;;;;;;;4.34;59.57;94273.44;5055009;28;20500;-84
2021/05/22 02:43:56;;;;;;;7.28;1.77;;;;;;;4.49;59.87;94270.88;5054903;28;20527;-85
2021/05/22 02:46:21;;;;;;;10.65;2.42;;;;;;;4.57;57.67;94270.03;5088953;28;20139;-85
2021/05/22 02:48:47;;;;;;;5.88;1.55;;;;;;;4.94;58.23;94265.84;5070519;28;20105;-84
2021/05/22 02:51:15;;;;;;;12.07;2.75;;;;;;;4.82;57.33;94259.34;5072381;28;20521;-84
2021/05/22 02:53:40;;;;;;;9.35;2.10;;;;;;;5.09;57.70;94259.84;5056289;28;20081;-84
2021/05/22 02:56:06;;;;;;;9.35;3.55;;;;;;;4.06;61.64;94266.00;5034317;28;20105;-84
2021/05/22 02:58:36;;;;;;;5.57;1.77;;;;;;;4.24;60.49;94259.66;5056291;28;20080;-84
2021/05/22 03:01:05;;;;;;;8.65;3.55;;;;;;;5.12;58.63;94251.56;5056948;28;20073;-84
2021/05/22 03:03:31;;;;;;;7.40;2.30;;;;;;;5.27;57.09;94253.44;5070841;28;20188;-84
2021/05/22 03:05:59;;;;;;;4.68;1.77;;;;;;;5.12;57.92;94254.22;5071921;28;20170;-84
2021/05/22 03:08:25;;;;;;;6.10;1.98;;;;;;;3.71;61.11;94270.69;5034516;28;20101;-84
2021/05/22 03:10:50;;;;;;;4.03;1.38;;;;;;;4.34;60.46;94265.53;5074816;28;20533;-84
2021/05/22 03:13:16;;;;;;;5.25;1.70;;;;;;;5.21;58.19;94255.78;5058666;28;20073;-84
2021/05/22 03:15:41;;;;;;;9.75;4.85;;;;;;;5.15;57.59;94243.31;5070864;28;20101;-84
2021/05/22 03:18:06;;;;;;;8.35;1.88;;;;;;;5.26;57.31;94243.84;5075411;28;20099;-84
2021/05/22 03:20:32;;;;;;;8.02;2.22;;;;;;;3.71;61.80;94247.00;5074313;28;20119;-84
2021/05/22 03:22:57;;;;;;;7.18;2.28;;;;;;;4.89;57.63;94247.09;5070563;28;20108;-84
2021/05/22 03:25:23;;;;;;;6.03;2.00;;;;;;;4.40;59.59;94245.59;5055581;28;20076;-84
2021/05/22 03:27:48;;;;;;;8.43;2.70;;;;;;;4.61;58.51;94239.69;5052142;28;20121;-84
2021/05/22 03:30:14;;;;;;;13.23;5.30;;;;;;;4.29;60.59;94241.53;5052643;28;20119;-84
2021/05/22 03:32:39;;;;;;;4.93;2.05;;;;;;;3.62;62.58;94249.66;5075705;28;20241;-84
2021/05/22 03:35:05;;;;;;;5.35;1.98;;;;;;;5.07;58.21;94246.81;5058873;28;20093;-84
2021/05/22 03:37:31;;;;;;;9.00;2.30;;;;;;;4.65;58.12;94248.91;5062104;28;20073;-85
2021/05/22 03:39:56;;;;;;;8.73;3.88;;;;;;;4.66;60.07;94247.91;5078551;28;20104;-85
2021/05/22 03:42:21;;;;;;;5.30;1.23;;;;;;;5.31;57.16;94246.81;5068419;28;20087;-84
2021/05/22 03:44:47;;;;;;;5.53;2.33;;;;;;;4.86;59.06;94244.78;5072992;28;20112;-84
2021/05/22 03:47:12;;;;;;;6.85;1.80;;;;;;;5.32;57.60;94248.44;5069218;28;20546;-84
2021/05/22 03:49:38;;;;;;;9.77;2.33;;;;;;;3.22;63.23;94256.59;5060967;28;20077;-84
2021/05/22 03:52:04;;;;;;;6.10;1.70;;;;;;;4.51;59.81;94247.00;5071885;28;20157;-84
2021/05/22 03:54:29;;;;;;;6.53;1.95;;;;;;;4.17;60.12;94248.97;5037438;28;20093;-84
2021/05/22 03:56:55;;;;;;;9.60;3.97;;;;;;;2.88;65.69;94250.50;5071951;28;20112;-84
2021/05/22 03:59:20;;;;;;;7.80;2.10;;;;;;;4.34;61.14;94247.09;5072723;28;20558;-85
2021/05/22 04:01:45;;;;;;;5.72;1.83;;;;;;;5.39;57.33;94246.72;5070691;28;20088;-84
2021/05/22 04:04:11;;;;;;;6.65;1.48;;;;;;;5.57;56.80;94259.59;5080949;28;20547;-84
2021/05/22 04:06:36;;;;;;;8.23;2.17;;;;;;;4.47;57.86;94261.53;5071575;28;20100;-84
2021/05/22 04:09:02;;;;;;;9.50;3.03;;;;;;;4.03;61.28;94261.06;5079921;28;20073;-84
2021/05/22 04:11:28;;;;;;;9.38;2.10;;;;;;;4.93;57.82;94251.00;5068429;28;20147;-84
2021/05/22 04:13:53;;;;;;;7.20;1.65;;;;;;;5.21;57.47;94262.88;5077509;28;20080;-84
2021/05/22 04:16:19;;;;;;;5.25;2.30;;;;;;;4.57;57.90;94264.75;5063073;28;20102;-84
2021/05/22 04:18:44;;;;;;;11.68;2.28;;;;;;;3.62;60.57;94254.94;5071223;28;20077;-84
2021/05/22 04:21:11;;;;;;;6.80;2.03;;;;;;;4.67;58.07;94257.47;5055066;28;20069;-84
2021/05/22 04:23:37;;;;;;;5.47;1.80;;;;;;;4.25;59.72;94262.13;5068829;28;20097;-85
2021/05/22 04:26:02;;;;;;;6.60;1.75;;;;;;;4.87;57.68;94266.72;5052248;28;20159;-84
2021/05/22 04:28:27;;;;;;;5.90;2.10;;;;;;;4.10;59.71;94267.28;5052440;28;20592;-84
2021/05/22 04:30:53;;;;;;;5.95;1.80;;;;;;;3.55;61.03;94270.53;5075435;28;20112;-84
2021/05/22 04:33:19;;;;;;;6.15;2.25;;;;;;;3.80;60.27;94257.34;5068827;28;20454;-84
2021/05/22 04:35:44;;;;;;;6.15;2.00;;;;;;;3.12;62.48;94260.22;5068774;28;20766;-84
2021/05/22 04:38:09;;;;;;;5.80;1.85;;;;;;;3.73;61.98;94271.34;5075987;28;20077;-84
2021/05/22 04:40:35;;;;;;;4.25;1.90;;;;;;;4.71;58.51;94253.50;5057989;28;20132;-84
2021/05/22 04:43:00;;;;;;;8.32;2.88;;;;;;;4.61;59.11;94273.97;5068175;28;20526;-85
2021/05/22 04:45:26;;;;;;;9.43;2.10;;;;;;;5.19;56.78;94262.22;5074455;28;20085;-85
2021/05/22 04:47:51;;;;;;;10.32;2.33;;;;;;;3.56;59.60;94276.66;5070564;28;20120;-85
2021/05/22 04:50:17;;;;;;;9.85;2.00;;;;;;;3.84;59.85;94263.09;5034202;28;20103;-85
2021/05/22 04:52:42;;;;;;;5.03;1.38;;;;;;;4.16;58.36;94260.53;5037726;28;20097;-85
2021/05/22 04:55:08;;;;;;;7.03;2.50;;;;;;;2.42;63.58;94279.84;5067589;28;20105;-85
2021/05/22 04:57:34;;;;;;;8.20;1.70;;;;;;;3.71;60.09;94270.69;5082862;28;20080;-85
2021/05/22 04:59:59;;;;;;;7.07;1.80;;;;;;;2.90;62.64;94283.53;5068118;28;20222;-83
2021/05/22 05:02:25;;;;;;;8.25;2.40;;;;;;;1.82;65.26;94283.22;5079550;28;20084;-84
2021/05/22 05:04:50;;;;;;;7.85;2.17;;;;;;;3.09;61.20;94276.31;5071237;28;20187;-84
2021/05/22 05:07:15;;;;;;;8.98;1.70;;;;;;;3.57;60.03;94274.84;5055081;28;20104;-84
2021/05/22 05:09:42;;;;;;;7.43;1.85;;;;;;;4.00;58.44;94278.03;5068363;28;20225;-84
2021/05/22 05:12:08;;;;;;;9.27;2.28;;;;;;;3.53;59.30;94287.50;5072900;28;20124;-84
2021/05/22 05:14:34;;;;;;;12.20;2.20;;;;;;;3.14;60.33;94292.41;5070231;28;20085;-84
2021/05/22 05:16:59;;;;;;;7.50;2.03;;;;;;;3.06;60.22;94287.16;5044618;28;20115;-83
2021/05/22 05:19:28;;;;;;;3.78;1.60;;;;;;;3.23;61.05;94295.06;5070986;28;20105;-84
2021/05/22 05:21:53;;;;;;;10.00;2.10;;;;;;;3.57;60.00;94280.91;5068960;28;20077;-84
2021/05/22 05:24:19;;;;;;;8.95;1.77;;;;;;;3.74;58.74;94283.53;5067989;28;20524;-84
2021/05/22 05:26:44;;;;;;;7.57;2.08;;;;;;;3.16;58.83;94298.34;5054354;28;20496;-84
2021/05/22 05:29:09;;;;;;;6.85;2.10;;;;;;;3.45;59.26;94282.25;5045419;28;20150;-84
2021/05/22 05:31:35;;;;;;;9.27;2.15;;;;;;;3.24;58.57;94273.88;5072943;28;20556;-83
2021/05/22 05:34:00;;;;;;;8.05;1.95;;;;;;;4.01;57.34;94282.28;5039084;28;20080;-83
2021/05/22 05:36:26;;;;;;;8.07;1.98;;;;;;;3.57;58.36;94288.81;5036392;28;20090;-85
2021/05/22 05:38:51;;;;;;;5.88;1.67;;;;;;;3.68;58.45;94283.19;5071009;28;20128;-83
2021/05/22 05:41:17;;;;;;;5.88;1.50;;;;;;;3.98;57.65;94292.34;5035542;28;20467;-84
2021/05/22 05:43:42;;;;;;;6.82;1.70;;;;;;;4.09;56.79;94288.53;5051255;28;20104;-84
2021/05/22 05:46:07;;;;;;;6.88;1.75;;;;;;;3.45;58.36;94305.94;5075784;28;20556;-84
2021/05/22 05:48:33;;;;;;;6.88;1.88;;;;;;;4.11;56.67;94295.25;5079635;28;20203;-84
2021/05/22 05:50:58;;;;;;;5.75;2.20;;;;;;;4.03;56.40;94293.50;5075997;28;20100;-84
2021/05/22 05:53:24;;;;;;;4.53;1.83;;;;;;;3.47;57.65;94296.88;5076433;28;20123;-84
2021/05/22 05:55:49;;;;;;;6.25;1.60;;;;;;;3.75;57.49;94293.91;5075428;28;20405;-84
2021/05/22 05:58:15;;;;;;;5.68;1.73;;;;;;;3.76;58.13;94278.91;5067790;28;20126;-84
2021/05/22 06:00:40;;;;;;;6.57;1.98;;;;;;;2.56;60.18;94288.91;5083207;28;20112;-84
2021/05/22 06:03:06;;;;;;;5.05;1.55;;;;;;;3.66;58.50;94276.47;5063225;28;20173;-85
2021/05/22 06:05:31;;;;;;;7.53;2.00;;;;;;;2.41;60.86;94280.81;5075347;28;20579;-84
2021/05/22 06:07:57;;;;;;;6.22;1.70;;;;;;;3.67;58.08;94275.47;5062045;28;20117;-84
2021/05/22 06:10:22;;;;;;;8.13;1.95;;;;;;;3.76;57.02;94271.00;5079253;28;20416;-84
2021/05/22 06:12:48;;;;;;;9.98;2.25;;;;;;;3.16;58.86;94266.78;5045300;28;20104;-84
2021/05/22 06:17:45;;;;;;;5.95;2.00;;;;;;;3.22;59.36;94260.03;5060183;28;20580;-85
2021/05/22 06:20:11;;;;;;;7.60;1.60;;;;;;;2.57;61.40;94298.41;5068494;28;20589;-84
2021/05/22 06:22:36;;;;;;;7.68;1.88;;;;;;;3.00;60.49;94275.47;5077345;28;20138;-84
2021/05/22 06:25:02;;;;;;;5.78;1.35;;;;;;;3.80;58.20;94288.09;5077130;28;20084;-84
2021/05/22 06:27:27;;;;;;;4.03;1.55;;;;;;;2.62;61.17;94277.75;5059022;28;20124;-84
2021/05/22 06:29:52;;;;;;;8.15;1.63;;;;;;;3.11;59.88;94278.78;5084425;28;20501;-84
2021/05/22 06:32:18;;;;;;;6.43;1.70;;;;;;;3.61;57.69;94284.84;5047820;28;20112;-84
2021/05/22 06:34:43;;;;;;;9.85;1.67;;;;;;;3.54;57.69;94283.91;5081453;28;20091;-84
2021/05/22 06:37:09;;;;;;;5.78;1.60;;;;;;;2.89;60.16;94299.47;5075892;28;20077;-84
2021/05/22 06:39:35;;;;;;;3.47;1.33;;;;;;;2.49;61.89;94292.16;5060337;28;20101;-84
2021/05/22 06:42:00;;;;;;;8.43;1.60;;;;;;;3.42;59.13;94292.09;5079550;28;20092;-84
2021/05/22 06:44:30;;;;;;;6.80;1.70;;;;;;;2.39;61.20;94286.22;5062922;28;20118;-84
2021/05/22 06:46:56;;;;;;;9.20;1.77;;;;;;;3.07;59.51;94288.81;5077056;28;20109;-84
2021/05/22 06:49:22;;;;;;;2.38;1.35;;;;;;;3.64;58.44;94291.63;5081417;28;20157;-84
2021/05/22 06:51:49;;;;;;;4.63;1.65;;;;;;;3.86;56.83;94295.34;5061448;28;20354;-84
2021/05/22 06:54:14;;;;;;;3.78;1.55;;;;;;;3.88;57.68;94282.81;5057932;28;20412;-84
2021/05/22 06:56:40;;;;;;;4.28;1.23;;;;;;;4.08;57.35;94298.22;5081466;28;20131;-84
2021/05/22 06:59:05;;;;;;;7.13;1.52;;;;;;;2.72;60.46;94291.56;5079172;28;20097;-84
2021/05/22 07:01:31;;;;;;;11.75;1.80;;;;;;;2.62;60.82;94307.47;5060767;28;20077;-84
2021/05/22 07:03:56;;;;;;;8.75;1.52;;;;;;;2.62;61.31;94322.44;5072702;28;20207;-84
2021/05/22 07:06:23;;;;;;;5.93;1.65;;;;;;;3.29;59.43;94297.03;5056419;28;20092;-84
2021/05/22 07:08:54;;;;;;;7.15;1.77;;;;;;;2.62;61.07;94310.09;5056597;28;20109;-84
2021/05/22 07:11:21;;;;;;;5.43;1.60;;;;;;;4.11;57.41;94300.53;5054355;28;20187;-84
2021/05/22 07:13:47;;;;;;;4.25;2.03;;;;;;;3.20;60.56;94303.28;5054644;28;20089;-84
2021/05/22 07:16:12;;;;;;;5.28;1.75;;;;;;;3.32;59.95;94293.25;5054753;28;20189;-83
2021/05/22 07:18:38;;;;;;;6.10;1.73;;;;;;;2.97;60.85;94298.66;5044222;28;20072;-84
2021/05/22 07:21:03;;;;;;;3.03;1.05;;;;;;;2.87;61.17;94317.22;5079220;28;20081;-84
2021/05/22 07:23:29;;;;;;;6.28;1.85;;;;;;;2.84;61.59;94299.97;5077374;28;20466;-84
2021/05/22 07:25:54;;;;;;;4.15;1.17;;;;;;;3.01;61.68;94294.72;5073967;28;20072;-84
2021/05/22 07:28:20;;;;;;;9.43;2.03;;;;;;;2.37;63.80;94324.97;5069765;28;20132;-84
2021/05/22 07:30:45;;;;;;;5.43;1.70;;;;;;;2.95;62.04;94316.41;5072101;28;20083;-84
2021/05/22 07:33:12;;;;;;;2.22;1.13;;;;;;;3.54;59.79;94307.59;5059105;28;20556;-84
2021/05/22 07:35:38;;;;;;;9.57;1.85;;;;;;;3.28;60.20;94314.63;5074101;28;20113;-84
2021/05/22 07:38:03;;;;;;;4.80;1.48;;;;;;;3.45;59.99;94306.75;5075132;28;20111;-84
2021/05/22 07:40:29;;;;;;;5.93;1.50;;;;;;;3.30;60.67;94330.22;5075408;28;20515;-84
2021/05/22 07:42:54;;;;;;;5.43;1.27;;;;;;;3.17;60.77;94318.41;5071454;28;20108;-84
2021/05/22 07:45:20;;;;;;;3.03;1.17;;;;;;;3.51;59.80;94313.97;5073487;28;20123;-84
2021/05/22 07:47:46;;;;;;;4.28;1.27;;;;;;;3.23;60.64;94329.28;5077096;28;20112;-84
2021/05/22 07:50:11;;;;;;;5.13;1.05;;;;;;;2.90;61.69;94314.28;5077259;28;20117;-83
2021/05/22 07:52:40;;;;;;;5.10;1.30;;;;;;;2.54;62.07;94317.97;5072780;28;20119;-83
2021/05/22 07:55:06;;;;;;;12.10;1.40;;;;;;;2.69;62.29;94344.44;5055958;28;20522;-84
2021/05/22 07:57:31;;;;;;;5.55;1.50;;;;;;;2.82;62.43;94307.19;5057434;28;20120;-84
2021/05/22 07:59:57;;;;;;;3.58;1.35;;;;;;;3.24;61.74;94326.47;5034342;28;20171;-84
2021/05/22 08:02:22;;;;;;;4.55;1.20;;;;;;;3.16;62.16;94332.53;5053625;28;20085;-84
2021/05/22 08:04:48;;;;;;;4.72;1.45;;;;;;;3.14;61.56;94318.72;5056152;28;20124;-85
2021/05/22 08:07:13;;;;;;;4.75;1.50;;;;;;;3.03;62.78;94353.25;5070124;28;20120;-84
2021/05/22 08:09:39;;;;;;;2.42;1.10;;;;;;;2.86;64.04;94357.66;5069901;28;20103;-85
2021/05/22 08:12:04;;;;;;;2.58;1.02;;;;;;;2.48;66.27;94343.06;5069607;28;20572;-85
2021/05/22 08:14:30;;;;;;;4.50;1.52;;;;;;;1.93;69.07;94352.97;5068691;28;20568;-85
2021/05/22 08:16:56;;;;;;;1.95;1.00;;;;;;;2.13;70.05;94350.97;5068573;28;20660;-85
2021/05/22 08:19:21;;;;;;;6.68;1.48;;;;;;;2.41;68.21;94344.69;5075252;28;20097;-85
2021/05/22 08:21:47;;;;;;;3.10;1.00;;;;;;;2.70;65.72;94324.25;5036290;28;20127;-85
2021/05/22 08:24:13;;;;;;;5.28;1.60;;;;;;;2.32;68.94;94343.00;5055214;28;20112;-85
2021/05/22 08:26:39;;;;;;;2.05;1.20;;;;;;;2.08;70.70;94341.91;5055846;28;20505;-84
2021/05/22 08:29:05;;;;;;;2.42;1.42;;;;;;;2.54;67.82;94370.50;5068935;28;20112;-85
2021/05/22 08:31:32;;;;;;;3.28;1.35;;;;;;;2.54;67.88;94341.59;5067682;28;20104;-85
2021/05/22 08:33:57;;;;;;;7.57;1.75;;;;;;;2.21;68.64;94367.75;5053878;28;20088;-85
2021/05/22 08:36:23;;;;;;;5.32;1.63;;;;;;;2.37;68.63;94330.22;5063243;28;20582;-84
2021/05/22 08:38:48;;;;;;;2.88;1.30;;;;;;;2.54;68.10;94346.88;5059596;28;20468;-83
2021/05/22 08:41:14;;;;;;;4.35;1.27;;;;;;;2.61;67.25;94339.16;5067800;28;20073;-84
2021/05/22 08:43:39;;;;;;;5.72;1.63;;;;;;;2.27;67.62;94352.19;5035656;28;20105;-84
2021/05/22 08:46:09;;;;;;;4.50;1.60;;;;;;;2.18;68.35;94336.53;5065675;28;20080;-84
2021/05/22 08:48:34;;;;;;;;;;;;;;;2.12;69.24;94349.31;5030710;28;20199;-85
2021/05/22 08:51:00;;;;;;;6.68;1.95;;;;;;;1.98;67.37;94374.34;5066334;28;20079;-84
2021/05/22 08:53:26;;;;;;;3.17;1.35;;;;;;;1.97;68.47;94366.63;5047124;28;20146;-85
2021/05/22 08:55:51;;;;;;;6.07;1.67;;;;;;;2.51;67.72;94355.88;5048222;28;20109;-84
2021/05/22 08:58:16;;;;;;;4.72;1.35;;;;;;;1.92;69.81;94371.50;5069498;28;20077;-84
2021/05/22 09:00:42;;;;;;;5.70;1.58;;;;;;;2.63;67.33;94353.78;5067839;28;20108;-84
2021/05/22 09:03:12;;;;;;;7.45;1.77;;;;;;;2.99;66.35;94354.56;5039572;28;20448;-84
2021/05/22 09:05:38;;;;;;;3.55;1.40;;;;;;;3.52;66.40;94349.03;5063557;28;20081;-84
2021/05/22 09:08:15;;;;;;;5.28;1.70;;;;;;;3.88;64.07;94359.19;5062315;28;20174;-84
2021/05/22 09:10:48;;;;;;;7.75;1.65;;;;;;;3.90;63.32;94351.13;5064119;28;20516;-84
2021/05/22 09:13:24;;;;;;;4.22;1.35;;;;;;;4.12;63.18;94346.94;5058236;28;20123;-84
2021/05/22 09:16:04;;;;;;;5.70;1.58;;;;;;;3.76;65.20;94347.34;5051933;28;21218;-84
2021/05/22 09:18:39;;;;;;;2.97;0.90;;;;;;;3.52;64.65;94359.56;5062877;28;20108;-84
2021/05/22 09:21:06;;;;;;;4.18;1.50;;;;;;;3.30;66.45;94367.06;5045643;28;20116;-84
2021/05/22 09:23:35;;;;;;;5.30;1.42;;;;;;;3.17;66.20;94357.84;5058947;28;20105;-84
2021/05/22 09:26:14;;;;;;;3.30;1.25;;;;;;;3.38;66.58;94369.72;5046241;28;20372;-84
2021/05/22 09:28:44;;;;;;;;;;;;;;;2.52;67.62;94396.13;5045993;28;20170;-84
2021/05/22 09:31:13;;;;;;;6.72;2.03;;;;;;;2.31;69.19;94386.81;5066077;28;20372;-81
2021/05/22 09:33:38;;;;;;;8.35;1.33;;;;;;;2.80;69.10;94377.50;5067859;28;20580;-82
2021/05/22 09:36:07;;;;;;;3.72;1.30;;;;;;;3.52;67.05;94370.91;5067266;28;20108;-83
2021/05/22 09:38:36;;;;;;;6.40;1.50;;;;;;;3.04;67.78;94378.56;5067016;28;20077;-84
2021/05/22 09:41:24;;;;;;;6.78;1.70;;;;;;;2.84;69.71;94389.34;5063034;28;20902;-84
2021/05/22 09:44:07;;;;;;;5.93;1.60;;;;;;;2.30;71.28;94386.97;5077104;28;20642;-84
2021/05/22 09:46:36;;;;;;;4.70;1.27;;;;;;;3.37;70.29;94397.00;5061773;28;20151;-84
2021/05/22 09:49:06;;;;;;;4.45;1.33;;;;;;;3.53;67.53;94382.25;5064016;28;20080;-85
2021/05/22 09:51:31;;;;;;;2.58;0.98;;;;;;;4.11;66.30;94382.19;5045069;28;20100;-84
2021/05/22 09:53:57;;;;;;;4.45;1.45;;;;;;;4.13;64.04;94388.13;5057387;28;20088;-84
2021/05/22 09:56:26;;;;;;;2.70;1.50;;;;;;;3.67;66.33;94394.75;5062112;28;20097;-84
2021/05/22 09:58:54;;;;;;;6.07;1.70;;;;;;;4.40;63.98;94386.09;5063368;28;20112;-84
2021/05/22 10:01:30;;;;;;;4.30;0.93;;;;;;;4.35;65.23;94401.56;5033922;28;20122;-84
2021/05/22 10:04:14;;;;;;;3.78;1.30;;;;;;;3.83;65.88;94381.72;5045054;28;20203;-84
2021/05/22 10:06:40;;;;;;;3.03;1.35;;;;;;;4.24;65.27;94394.84;5054633;28;20093;-85
2021/05/22 10:09:13;;;;;;;4.60;1.63;;;;;;;4.48;63.13;94387.88;5045588;28;20085;-85
2021/05/22 10:12:04;;;;;;;5.00;1.63;;;;;;;3.73;65.10;94392.44;5044593;28;20101;-84
2021/05/22 10:14:34;;;;;;;4.47;1.50;;;;;;;4.49;64.19;94389.50;5061112;28;20526;-85
2021/05/22 10:17:02;;;;;;;3.92;1.23;;;;;;;4.62;63.41;94390.81;5045554;28;20621;-85
2021/05/22 10:19:28;;;;;;;2.85;1.48;;;;;;;4.01;65.80;94389.47;5066462;28;20835;-85
2021/05/22 10:21:53;;;;;;;2.38;1.25;;;;;;;4.43;64.17;94390.19;5046014;28;20080;-85
2021/05/22 10:24:18;;;;;;;4.43;1.77;;;;;;;3.68;66.33;94393.75;5030966;28;20109;-85
2021/05/22 10:26:44;;;;;;;3.83;1.33;;;;;;;4.41;64.05;94382.47;5045968;28;20120;-85
2021/05/22 10:29:10;;;;;;;4.05;1.27;;;;;;;3.70;66.68;94416.47;5028206;28;20137;-85
2021/05/22 10:31:41;;;;;;;2.80;1.42;;;;;;;4.41;64.25;94400.06;5061730;28;20104;-85
2021/05/22 10:34:15;;;;;;;3.80;1.20;;;;;;;4.56;64.18;94403.66;5063419;28;20596;-85
2021/05/22 10:36:51;;;;;;;4.00;1.20;;;;;;;4.67;65.00;94405.13;5058833;28;20572;-85
2021/05/22 10:39:36;;;;;;;2.60;1.17;;;;;;;4.33;63.47;94445.72;5066763;28;20100;-84
2021/05/22 10:42:02;;;;;;;3.25;1.10;;;;;;;4.36;65.55;94423.47;5067932;28;20077;-84
2021/05/22 10:44:37;;;;;;;3.28;1.23;;;;;;;3.86;65.75;94423.53;5048959;28;20170;-84
2021/05/22 10:47:03;;;;;;;2.00;1.17;;;;;;;4.42;66.31;94422.81;5064479;28;20103;-84
2021/05/22 10:50:05;;;;;;;4.43;1.60;;;;;;;3.96;64.91;94447.91;5036450;28;20176;-85
2021/05/22 10:52:31;;;;;;;5.05;1.50;;;;;;;3.66;67.29;94424.72;5064862;28;20104;-84
2021/05/22 10:55:12;;;;;;;5.57;1.35;;;;;;;3.59;69.12;94422.88;5054106;28;20146;-84
2021/05/22 10:57:47;;;;;;;4.97;1.60;;;;;;;3.33;67.91;94440.41;5052944;28;20419;-85
2021/05/22 11:00:25;;;;;;;3.65;1.55;;;;;;;4.00;67.85;94425.50;5060962;28;20477;-84
2021/05/22 11:02:53;;;;;;;4.03;1.42;;;;;;;3.98;68.32;94430.13;5063066;28;20154;-84
2021/05/22 11:05:26;;;;;;;3.83;1.27;;;;;;;4.40;64.19;94449.34;5062300;28;20081;-84
2021/05/22 11:08:04;;;;;;;3.00;1.20;;;;;;;4.23;66.24;94427.47;5065573;28;20124;-84
2021/05/22 11:10:35;;;;;;;4.28;1.50;;;;;;;4.09;65.83;94433.41;5066941;28;20579;-84
2021/05/22 11:13:01;;;;;;;4.32;1.25;;;;;;;4.82;65.20;94438.66;5055555;28;20513;-84
2021/05/22 11:15:47;;;;;;;3.58;1.50;;;;;;;3.79;66.26;94432.13;5063601;28;20128;-84
2021/05/22 11:18:14;;;;;;;3.55;1.30;;;;;;;4.34;66.43;94434.19;5043587;28;20093;-84
2021/05/22 11:20:41;;;;;;;6.32;2.05;;;;;;;3.33;66.24;94450.94;5047421;28;20445;-85
2021/05/22 11:23:07;;;;;;;10.57;2.05;;;;;;;3.11;67.00;94474.25;5070408;28;20187;-84
2021/05/22 11:25:45;;;;;;;5.07;1.52;;;;;;;4.42;65.09;94449.97;5053008;28;20171;-85
2021/05/22 11:28:17;;;;;;;;;;;;;;;4.07;64.13;94452.00;5061228;28;20120;-84
2021/05/22 11:30:44;;;;;;;4.18;1.50;;;;;;;4.28;66.71;94440.13;5062803;28;19965;-85
2021/05/22 11:33:26;;;;;;;6.47;1.50;;;;;;;3.64;67.10;94473.25;5067442;28;20080;-85
2021/05/22 11:35:52;;;;;;;6.32;1.80;;;;;;;3.80;65.90;94459.25;5051721;28;20105;-84
2021/05/22 11:38:17;;;;;;;4.53;1.40;;;;;;;4.10;65.09;94461.38;5048361;28;20207;-83
2021/05/22 11:40:43;;;;;;;4.43;1.60;;;;;;;4.53;66.04;94456.69;5071810;28;20195;-83
2021/05/22 11:43:15;;;;;;;9.13;2.17;;;;;;;4.54;63.64;94460.16;5070332;28;20449;-82